createdAt,value
2019-02-21T00:00:11.183Z,6.58
2019-02-21T00:02:41.501Z,6.63
2019-02-21T00:05:11.975Z,6.68
2019-02-21T00:07:43.407Z,6.72
2019-02-21T00:10:13.816Z,6.73
2019-02-21T00:12:45.674Z,6.70
2019-02-21T00:15:16.152Z,6.69
2019-02-21T00:17:46.577Z,6.66
2019-02-21T00:20:17.065Z,6.61
2019-02-21T00:22:47.531Z,6.60
2019-02-21T00:25:18.038Z,6.56
2019-02-21T00:27:48.428Z,6.56
2019-02-21T00:30:18.813Z,6.51
2019-02-21T00:32:49.253Z,6.51
2019-02-21T00:35:19.680Z,6.51
2019-02-21T00:37:50.129Z,6.54
2019-02-21T00:40:20.635Z,6.57
2019-02-21T00:42:51.031Z,6.57
2019-02-21T00:45:21.342Z,6.59
2019-02-21T00:47:51.780Z,6.56
2019-02-21T00:50:22.255Z,6.51
2019-02-21T00:52:52.669Z,6.50
2019-02-21T00:55:23.122Z,6.50
2019-02-21T00:57:53.498Z,6.48
2019-02-21T01:00:23.968Z,6.49
2019-02-21T01:02:54.431Z,6.50
2019-02-21T01:05:24.945Z,6.49
2019-02-21T01:07:55.316Z,6.49
2019-02-21T01:10:25.751Z,6.51
2019-02-21T01:12:56.342Z,6.49
2019-02-21T01:15:27.062Z,6.48
2019-02-21T01:17:57.640Z,6.47
2019-02-21T01:20:27.936Z,6.46
2019-02-21T01:22:58.306Z,6.43
2019-02-21T01:25:28.796Z,6.41
2019-02-21T01:27:59.147Z,6.42
2019-02-21T01:30:29.687Z,6.41
2019-02-21T01:33:00.114Z,6.37
2019-02-21T01:35:30.420Z,6.36
2019-02-21T01:38:00.913Z,6.35
2019-02-21T01:40:31.286Z,6.35
2019-02-21T01:43:01.698Z,6.36
2019-02-21T01:45:32.148Z,6.35
2019-02-21T01:48:02.632Z,6.35
2019-02-21T01:50:33.146Z,6.32
2019-02-21T01:53:03.365Z,6.31
2019-02-21T01:55:33.796Z,6.27
2019-02-21T01:58:04.228Z,6.22
2019-02-21T02:00:34.653Z,6.18
2019-02-21T02:03:05.329Z,6.15
2019-02-21T02:05:35.819Z,6.10
2019-02-21T02:08:06.171Z,6.03
2019-02-21T02:10:36.526Z,5.99
2019-02-21T02:13:06.834Z,5.97
2019-02-21T02:15:37.265Z,5.93
2019-02-21T02:18:07.652Z,5.91
2019-02-21T02:20:38.090Z,5.83
2019-02-21T02:23:08.455Z,5.83
2019-02-21T02:25:38.974Z,5.80
2019-02-21T02:28:09.430Z,5.82
2019-02-21T02:30:39.860Z,5.81
2019-02-21T02:33:10.271Z,5.76
2019-02-21T02:35:40.709Z,5.75
2019-02-21T02:38:11.217Z,5.72
2019-02-21T02:40:41.552Z,5.72
2019-02-21T02:43:11.818Z,5.71
2019-02-21T02:45:42.580Z,5.69
2019-02-21T02:48:13.083Z,5.68
2019-02-21T02:50:43.538Z,5.67
2019-02-21T02:53:14.933Z,5.68
2019-02-21T02:55:45.393Z,5.70
2019-02-21T02:58:16.009Z,5.69
2019-02-21T03:00:46.501Z,5.69
2019-02-21T03:03:17.025Z,5.73
2019-02-21T03:05:47.489Z,5.75
2019-02-21T03:08:17.902Z,5.75
2019-02-21T03:10:48.360Z,5.78
2019-02-21T03:13:18.810Z,5.79
2019-02-21T03:15:49.225Z,5.81
2019-02-21T03:18:19.661Z,5.85
2019-02-21T03:20:50.019Z,5.83
2019-02-21T03:23:20.339Z,5.79
2019-02-21T03:25:50.738Z,5.83
2019-02-21T03:28:21.199Z,5.84
2019-02-21T03:30:51.924Z,5.83
2019-02-21T03:33:22.350Z,5.78
2019-02-21T03:35:52.872Z,5.74
2019-02-21T03:38:23.357Z,5.72
2019-02-21T03:40:53.740Z,5.62
2019-02-21T03:43:24.124Z,5.57
2019-02-21T03:45:54.571Z,5.51
2019-02-21T03:48:25.113Z,5.43
2019-02-21T03:50:55.629Z,5.35
2019-02-21T03:53:26.062Z,5.30
2019-02-21T03:55:56.515Z,5.26
2019-02-21T03:58:27.455Z,5.23
2019-02-21T04:00:57.858Z,5.16
2019-02-21T04:03:28.543Z,5.11
2019-02-21T04:05:58.820Z,5.09
2019-02-21T04:08:29.387Z,5.03
2019-02-21T04:10:59.827Z,4.99
2019-02-21T04:13:30.222Z,4.93
2019-02-21T04:16:01.082Z,4.92
2019-02-21T04:18:31.454Z,4.86
2019-02-21T04:21:01.773Z,4.86
2019-02-21T04:23:32.316Z,4.78
2019-02-21T04:26:03.875Z,4.72
2019-02-21T04:28:34.188Z,4.63
2019-02-21T04:31:04.696Z,4.60
2019-02-21T04:33:35.000Z,4.58
2019-02-21T04:36:05.418Z,4.55
2019-02-21T04:38:35.834Z,4.58
2019-02-21T04:41:06.236Z,4.57
2019-02-21T04:43:36.646Z,4.58
2019-02-21T04:46:07.079Z,4.57
2019-02-21T04:48:37.575Z,4.54
2019-02-21T04:51:07.900Z,4.48
2019-02-21T04:53:38.409Z,4.45
2019-02-21T04:56:08.856Z,4.40
2019-02-21T04:58:39.215Z,4.35
2019-02-21T05:01:09.728Z,4.30
2019-02-21T05:03:40.167Z,4.22
2019-02-21T05:06:10.762Z,4.19
2019-02-21T05:08:41.246Z,4.15
2019-02-21T05:11:11.707Z,4.10
2019-02-21T05:13:42.081Z,4.07
2019-02-21T05:16:12.518Z,4.02
2019-02-21T05:18:42.957Z,4.02
2019-02-21T05:21:13.402Z,4.01
2019-02-21T05:23:43.828Z,3.99
2019-02-21T05:26:17.887Z,3.99
2019-02-21T05:28:48.310Z,4.01
2019-02-21T05:31:29.099Z,4.01
2019-02-21T05:34:09.876Z,4.00
2019-02-21T05:36:58.043Z,3.98
2019-02-21T05:39:38.055Z,3.99
2019-02-21T05:42:33.395Z,3.98
2019-02-21T05:45:21.651Z,3.96
2019-02-21T05:48:04.697Z,3.93
2019-02-21T05:50:41.202Z,3.96
2019-02-21T05:53:21.204Z,3.98
2019-02-21T05:56:12.420Z,3.97
2019-02-21T05:59:01.768Z,3.91
2019-02-21T06:01:55.739Z,3.88
2019-02-21T06:04:57.396Z,3.87
2019-02-21T06:07:42.155Z,3.84
2019-02-21T06:10:37.558Z,3.83
2019-02-21T06:13:23.963Z,3.75
2019-02-21T06:16:09.831Z,3.72
2019-02-21T06:18:48.650Z,3.63
2019-02-21T06:21:44.066Z,3.65
2019-02-21T06:24:33.316Z,3.68
2019-02-21T06:27:12.654Z,3.71
2019-02-21T06:30:04.780Z,3.73
2019-02-21T06:32:35.213Z,3.76
2019-02-21T06:35:06.542Z,3.75
2019-02-21T06:37:37.910Z,3.77
2019-02-21T06:40:08.479Z,3.77
2019-02-21T06:42:39.313Z,3.80
2019-02-21T06:45:09.856Z,3.86
2019-02-21T06:47:40.191Z,3.96
2019-02-21T06:50:10.639Z,4.10
2019-02-21T06:52:40.941Z,4.29
2019-02-21T06:55:11.301Z,4.42
2019-02-21T06:57:41.632Z,4.56
2019-02-21T07:00:12.026Z,4.71
2019-02-21T07:02:42.393Z,4.89
2019-02-21T07:05:12.870Z,5.06
2019-02-21T07:07:43.327Z,5.18
2019-02-21T07:10:13.642Z,5.29
2019-02-21T07:12:44.122Z,5.38
2019-02-21T07:15:15.219Z,5.37
2019-02-21T07:17:49.450Z,5.34
2019-02-21T07:20:17.904Z,5.36
2019-02-21T07:22:48.333Z,5.34
2019-02-21T07:25:38.542Z,5.38
2019-02-21T07:28:12.489Z,5.44
2019-02-21T07:30:42.939Z,5.47
2019-02-21T07:33:13.360Z,5.47
2019-02-21T07:35:43.688Z,5.50
2019-02-21T07:38:14.051Z,5.58
2019-02-21T07:40:44.457Z,5.65
2019-02-21T07:43:14.932Z,5.69
2019-02-21T07:45:45.225Z,5.73
2019-02-21T07:48:15.671Z,5.85
2019-02-21T07:50:46.044Z,6.01
2019-02-21T07:53:16.427Z,6.15
2019-02-21T07:55:46.948Z,6.29
2019-02-21T07:58:17.315Z,6.46
2019-02-21T08:00:47.768Z,6.62
2019-02-21T08:03:29.501Z,6.76
2019-02-21T08:05:50.295Z,6.94
2019-02-21T08:08:21.065Z,7.12
2019-02-21T08:10:51.578Z,7.28
2019-02-21T08:13:21.930Z,7.53
2019-02-21T08:15:52.375Z,7.71
2019-02-21T08:18:22.713Z,7.81
2019-02-21T08:20:53.036Z,7.93
2019-02-21T08:23:23.480Z,8.53
2019-02-21T08:25:53.886Z,9.86
2019-02-21T08:28:24.328Z,10.66
2019-02-21T08:30:54.820Z,11.85
2019-02-21T08:33:58.433Z,14.38
2019-02-21T08:36:23.480Z,17.22
2019-02-21T08:38:53.898Z,18.79
2019-02-21T08:41:25.745Z,20.53
2019-02-21T08:43:57.400Z,21.96
2019-02-21T08:46:28.038Z,23.10
2019-02-21T08:48:58.544Z,24.23
2019-02-21T08:51:29.015Z,24.94
2019-02-21T08:53:59.459Z,25.93
2019-02-21T08:56:30.098Z,26.41
2019-02-21T08:59:00.624Z,26.49
2019-02-21T09:01:31.083Z,27.13
2019-02-21T09:04:10.101Z,27.49
2019-02-21T09:06:33.760Z,27.75
2019-02-21T09:09:04.835Z,27.77
2019-02-21T09:11:35.300Z,28.02
2019-02-21T09:14:05.693Z,28.04
2019-02-21T09:16:36.054Z,28.02
2019-02-21T09:19:06.446Z,28.18
2019-02-21T09:21:36.867Z,28.18
2019-02-21T09:24:07.632Z,28.48
2019-02-21T09:26:38.144Z,28.78
2019-02-21T09:29:08.556Z,28.96
2019-02-21T09:31:39.032Z,28.96
2019-02-21T09:34:09.379Z,28.88
2019-02-21T09:36:39.844Z,28.66
2019-02-21T09:39:10.159Z,28.73
2019-02-21T09:41:40.675Z,28.71
2019-02-21T09:44:11.021Z,29.14
2019-02-21T09:46:41.406Z,29.28
2019-02-21T09:49:11.872Z,29.53
2019-02-21T09:51:42.165Z,29.21
2019-02-21T09:54:12.657Z,29.16
2019-02-21T09:56:52.397Z,29.26
2019-02-21T09:59:15.308Z,29.48
2019-02-21T10:01:45.706Z,28.48
2019-02-21T10:04:16.160Z,27.01
2019-02-21T10:06:47.113Z,25.98
2019-02-21T10:09:17.599Z,26.71
2019-02-21T10:11:47.914Z,25.75
2019-02-21T10:14:18.369Z,25.16
2019-02-21T10:16:49.654Z,25.31
2019-02-21T10:19:20.132Z,25.88
2019-02-21T10:21:50.567Z,24.97
2019-02-21T10:24:20.905Z,23.85
2019-02-21T10:26:51.365Z,24.18
2019-02-21T10:29:21.737Z,23.76
2019-02-21T10:31:52.040Z,22.99
2019-02-21T10:34:22.469Z,22.00
2019-02-21T10:36:52.851Z,21.06
2019-02-21T10:39:23.372Z,20.32
2019-02-21T10:41:53.786Z,20.11
2019-02-21T10:44:24.296Z,19.98
2019-02-21T10:46:54.663Z,19.58
2019-02-21T10:49:25.162Z,18.89
2019-02-21T10:51:55.599Z,18.23
2019-02-21T10:54:25.912Z,17.74
2019-02-21T10:56:56.359Z,17.62
2019-02-21T10:59:27.544Z,17.52
2019-02-21T11:01:57.863Z,17.35
2019-02-21T11:04:28.248Z,17.26
2019-02-21T11:06:58.683Z,17.26
2019-02-21T11:09:29.133Z,17.04
2019-02-21T11:11:59.557Z,16.93
2019-02-21T11:14:29.898Z,16.66
2019-02-21T11:17:00.804Z,16.68
2019-02-21T11:19:32.044Z,16.86
2019-02-21T11:22:03.169Z,16.86
2019-02-21T11:24:34.797Z,16.97
2019-02-21T11:27:06.375Z,17.07
2019-02-21T11:29:38.409Z,17.41
2019-02-21T11:32:09.752Z,17.49
2019-02-21T11:34:40.439Z,17.40
2019-02-21T11:37:12.298Z,17.14
2019-02-21T11:39:42.820Z,16.53
2019-02-21T11:42:13.541Z,16.54
2019-02-21T11:44:44.643Z,16.37
2019-02-21T11:47:15.654Z,16.38
2019-02-21T11:49:46.967Z,16.47
2019-02-21T11:52:17.440Z,16.62
2019-02-21T11:54:47.766Z,16.64
2019-02-21T11:57:18.749Z,16.56
2019-02-21T11:59:49.644Z,16.54
2019-02-21T12:02:20.056Z,16.29
2019-02-21T12:04:50.493Z,16.19
2019-02-21T12:07:20.854Z,16.08
2019-02-21T12:09:51.274Z,15.84
2019-02-21T12:12:21.667Z,15.55
2019-02-21T12:14:51.970Z,15.25
2019-02-21T12:17:22.406Z,15.01
2019-02-21T12:19:52.868Z,14.81
2019-02-21T12:22:23.307Z,14.79
2019-02-21T12:24:53.782Z,14.96
2019-02-21T12:27:24.212Z,14.99
2019-02-21T12:29:54.687Z,15.04
2019-02-21T12:32:25.114Z,15.15
2019-02-21T12:34:55.667Z,15.20
2019-02-21T12:37:26.114Z,15.39
2019-02-21T12:39:56.796Z,15.52
2019-02-21T12:42:27.286Z,15.57
2019-02-21T12:44:57.762Z,15.69
2019-02-21T12:47:28.120Z,15.65
2019-02-21T12:49:58.577Z,15.82
2019-02-21T12:52:28.993Z,15.82
2019-02-21T12:54:59.405Z,15.94
2019-02-21T12:57:29.894Z,16.27
2019-02-21T13:00:00.231Z,16.81
2019-02-21T13:02:30.691Z,16.87
2019-02-21T13:05:01.111Z,16.76
2019-02-21T13:07:31.509Z,16.61
2019-02-21T13:10:02.057Z,16.22
2019-02-21T13:12:32.470Z,15.91
2019-02-21T13:15:02.802Z,15.57
2019-02-21T13:17:33.136Z,15.22
2019-02-21T13:20:03.555Z,14.97
2019-02-21T13:22:33.925Z,14.73
2019-02-21T13:25:04.381Z,14.55
2019-02-21T13:27:34.771Z,14.35
2019-02-21T13:30:05.950Z,14.32
2019-02-21T13:32:36.380Z,14.46
2019-02-21T13:35:07.540Z,14.73
2019-02-21T13:37:38.070Z,14.87
2019-02-21T13:40:09.876Z,14.99
2019-02-21T13:42:40.287Z,15.11
2019-02-21T13:45:11.818Z,15.25
2019-02-21T13:47:42.257Z,15.29
2019-02-21T13:50:15.430Z,15.22
2019-02-21T13:52:45.902Z,15.24
2019-02-21T13:55:16.468Z,15.29
2019-02-21T13:57:47.034Z,15.25
2019-02-21T14:00:19.045Z,15.12
2019-02-21T14:02:49.969Z,15.02
2019-02-21T14:05:20.436Z,14.83
2019-02-21T14:07:50.920Z,14.67
2019-02-21T14:10:21.344Z,14.66
2019-02-21T14:12:51.646Z,14.64
2019-02-21T14:15:24.248Z,14.63
2019-02-21T14:17:54.654Z,14.63
2019-02-21T14:20:25.109Z,14.65
2019-02-21T14:22:55.555Z,14.69
2019-02-21T14:25:28.204Z,14.71
2019-02-21T14:27:58.192Z,14.72
2019-02-21T14:30:28.494Z,14.68
2019-02-21T14:32:58.903Z,14.69
2019-02-21T14:35:29.381Z,14.56
2019-02-21T14:37:59.783Z,14.31
2019-02-21T14:40:30.142Z,14.19
2019-02-21T14:43:00.506Z,14.14
2019-02-21T14:45:30.982Z,14.07
2019-02-21T14:48:01.428Z,14.01
2019-02-21T14:50:31.760Z,13.89
2019-02-21T14:53:02.148Z,13.85
2019-02-21T14:55:32.528Z,13.85
2019-02-21T14:58:02.915Z,13.85
2019-02-21T15:00:33.247Z,13.88
2019-02-21T15:03:03.653Z,13.92
2019-02-21T15:05:34.199Z,13.94
2019-02-21T15:08:04.621Z,13.82
2019-02-21T15:10:35.078Z,13.79
2019-02-21T15:13:05.563Z,13.65
2019-02-21T15:15:37.773Z,13.54
2019-02-21T15:18:11.096Z,13.51
2019-02-21T15:20:40.359Z,13.43
2019-02-21T15:23:10.826Z,13.40
2019-02-21T15:25:41.279Z,13.34
2019-02-21T15:28:11.975Z,13.30
2019-02-21T15:30:42.354Z,13.24
2019-02-21T15:33:12.917Z,13.22
2019-02-21T15:35:43.236Z,13.21
2019-02-21T15:38:19.843Z,13.16
2019-02-21T15:40:45.848Z,13.11
2019-02-21T15:43:16.190Z,13.06
2019-02-21T15:45:46.551Z,13.02
2019-02-21T15:48:16.911Z,12.91
2019-02-21T15:50:47.314Z,12.86
2019-02-21T15:53:17.818Z,12.81
2019-02-21T15:55:48.402Z,12.75
2019-02-21T15:58:18.837Z,12.66
2019-02-21T16:00:49.242Z,12.54
2019-02-21T16:03:19.664Z,12.48
2019-02-21T16:05:50.047Z,12.44
2019-02-21T16:08:20.575Z,12.38
2019-02-21T16:10:51.021Z,12.35
2019-02-21T16:13:22.215Z,12.31
2019-02-21T16:15:52.875Z,12.25
2019-02-21T16:18:23.289Z,12.19
2019-02-21T16:20:53.850Z,12.13
2019-02-21T16:23:25.771Z,12.05
2019-02-21T16:25:56.173Z,12.04
2019-02-21T16:28:26.661Z,12.03
2019-02-21T16:30:57.101Z,12.00
2019-02-21T16:33:27.566Z,11.98
2019-02-21T16:35:57.968Z,11.89
2019-02-21T16:38:28.424Z,11.86
2019-02-21T16:40:59.056Z,11.77
2019-02-21T16:43:29.488Z,11.76
2019-02-21T16:46:07.401Z,11.76
2019-02-21T16:48:31.907Z,11.74
2019-02-21T16:51:02.393Z,11.69
2019-02-21T16:53:32.805Z,11.67
2019-02-21T16:56:03.141Z,11.64
2019-02-21T16:58:34.450Z,11.54
2019-02-21T17:01:04.849Z,11.45
2019-02-21T17:03:35.260Z,11.37
2019-02-21T17:06:05.983Z,11.30
2019-02-21T17:08:36.329Z,11.23
2019-02-21T17:11:06.809Z,11.16
2019-02-21T17:13:37.206Z,11.09
2019-02-21T17:16:08.179Z,11.01
2019-02-21T17:18:38.867Z,10.94
2019-02-21T17:21:09.422Z,10.91
2019-02-21T17:23:40.684Z,10.85
2019-02-21T17:26:11.471Z,10.76
2019-02-21T17:28:42.201Z,10.71
2019-02-21T17:31:13.118Z,10.68
2019-02-21T17:33:43.509Z,10.69
2019-02-21T17:36:14.227Z,10.68
2019-02-21T17:38:45.427Z,10.72
2019-02-21T17:41:16.482Z,10.77
2019-02-21T17:43:48.016Z,10.79
2019-02-21T17:46:18.809Z,10.80
2019-02-21T17:48:49.721Z,10.82
2019-02-21T17:51:20.279Z,10.81
2019-02-21T17:53:52.660Z,10.80
2019-02-21T17:56:23.647Z,10.76
2019-02-21T17:58:54.547Z,10.69
2019-02-21T18:01:25.382Z,10.58
2019-02-21T18:03:56.231Z,10.47
2019-02-21T18:06:30.016Z,10.36
2019-02-21T18:09:02.202Z,10.29
2019-02-21T18:11:32.789Z,10.28
2019-02-21T18:14:04.178Z,10.37
2019-02-21T18:16:34.809Z,10.46
2019-02-21T18:19:05.447Z,10.55
2019-02-21T18:21:35.972Z,10.61
2019-02-21T18:24:06.799Z,10.63
2019-02-21T18:26:37.365Z,10.64
2019-02-21T18:29:07.733Z,10.60
2019-02-21T18:31:38.168Z,10.58
2019-02-21T18:34:08.619Z,10.57
2019-02-21T18:36:39.055Z,10.57
2019-02-21T18:39:09.838Z,10.56
2019-02-21T18:41:40.288Z,10.58
2019-02-21T18:44:10.934Z,10.54
2019-02-21T18:46:41.379Z,10.49
2019-02-21T18:49:11.851Z,10.44
2019-02-21T18:51:42.330Z,10.43
2019-02-21T18:54:12.626Z,10.41
2019-02-21T18:56:43.032Z,10.35
2019-02-21T18:59:13.464Z,10.27
2019-02-21T19:01:43.937Z,10.22
2019-02-21T19:04:14.392Z,10.17
2019-02-21T19:06:44.881Z,10.12
2019-02-21T19:09:15.354Z,10.09
2019-02-21T19:11:45.922Z,10.05
2019-02-21T19:14:16.292Z,10.01
2019-02-21T19:16:46.731Z,9.95
2019-02-21T19:19:17.203Z,9.90
2019-02-21T19:21:47.662Z,9.84
2019-02-21T19:24:18.055Z,9.80
2019-02-21T19:26:48.617Z,9.75
2019-02-21T19:29:19.020Z,9.68
2019-02-21T19:31:49.671Z,9.65
2019-02-21T19:34:20.138Z,9.68
2019-02-21T19:36:50.943Z,9.72
2019-02-21T19:39:21.301Z,9.71
2019-02-21T19:41:51.767Z,9.71
2019-02-21T19:44:22.098Z,9.72
2019-02-21T19:46:52.564Z,9.71
2019-02-21T19:49:23.005Z,9.69
2019-02-21T19:51:53.461Z,9.68
2019-02-21T19:54:24.110Z,9.67
2019-02-21T19:56:54.739Z,9.70
2019-02-21T19:59:25.443Z,9.67
2019-02-21T20:01:56.075Z,9.65
2019-02-21T20:04:26.880Z,9.63
2019-02-21T20:06:59.425Z,9.61
2019-02-21T20:09:30.302Z,9.58
2019-02-21T20:12:02.077Z,9.57
2019-02-21T20:14:32.532Z,9.56
2019-02-21T20:17:02.868Z,9.59
2019-02-21T20:19:33.334Z,9.61
2019-02-21T20:22:03.838Z,9.62
2019-02-21T20:24:34.187Z,9.63
2019-02-21T20:27:04.651Z,9.64
2019-02-21T20:29:35.030Z,9.63
2019-02-21T20:32:05.365Z,9.63
2019-02-21T20:34:35.763Z,9.64
2019-02-21T20:37:06.054Z,9.58
2019-02-21T20:39:36.746Z,9.57
2019-02-21T20:42:07.195Z,9.57
2019-02-21T20:44:37.815Z,9.57
2019-02-21T20:47:08.344Z,9.51
2019-02-21T20:49:38.746Z,9.45
2019-02-21T20:52:09.233Z,9.40
2019-02-21T20:54:39.569Z,9.38
2019-02-21T20:57:09.890Z,9.38
2019-02-21T20:59:40.497Z,9.38
2019-02-21T21:02:11.185Z,9.40
2019-02-21T21:04:41.635Z,9.40
2019-02-21T21:07:11.969Z,9.34
2019-02-21T21:09:42.406Z,9.28
2019-02-21T21:12:12.882Z,9.17
2019-02-21T21:14:43.337Z,9.08
2019-02-21T21:17:13.922Z,8.95
2019-02-21T21:19:45.442Z,8.87
2019-02-21T21:22:16.022Z,8.76
2019-02-21T21:24:46.508Z,8.71
2019-02-21T21:27:17.185Z,8.69
2019-02-21T21:29:47.681Z,8.71
2019-02-21T21:32:18.473Z,8.74
2019-02-21T21:34:49.015Z,8.77
2019-02-21T21:37:19.731Z,8.78
2019-02-21T21:39:50.426Z,8.81
2019-02-21T21:42:21.138Z,8.87
2019-02-21T21:44:51.776Z,8.89
2019-02-21T21:47:23.852Z,8.93
2019-02-21T21:49:55.351Z,8.95
2019-02-21T21:52:26.217Z,8.97
2019-02-21T21:54:56.822Z,9.01
2019-02-21T21:57:27.552Z,9.09
2019-02-21T21:59:57.978Z,9.16
2019-02-21T22:02:28.567Z,9.21
2019-02-21T22:04:59.228Z,9.27
2019-02-21T22:07:29.685Z,9.31
2019-02-21T22:10:00.598Z,9.31
2019-02-21T22:12:31.257Z,9.29
2019-02-21T22:15:01.814Z,9.31
2019-02-21T22:17:33.458Z,9.32
2019-02-21T22:20:04.160Z,9.35
2019-02-21T22:22:34.751Z,9.35
2019-02-21T22:25:05.993Z,9.33
2019-02-21T22:27:36.453Z,9.38
2019-02-21T22:30:08.075Z,9.40
2019-02-21T22:32:38.853Z,9.41
2019-02-21T22:35:09.599Z,9.41
2019-02-21T22:37:43.683Z,9.42
2019-02-21T22:40:15.143Z,9.39
2019-02-21T22:42:45.793Z,9.36
2019-02-21T22:45:16.386Z,9.36
2019-02-21T22:47:46.770Z,9.34
2019-02-21T22:50:17.658Z,9.31
2019-02-21T22:52:48.164Z,9.30
2019-02-21T22:55:19.332Z,9.31
2019-02-21T22:57:50.853Z,9.33
2019-02-21T23:01:10.313Z,9.28
2019-02-21T23:04:28.242Z,9.28
2019-02-21T23:08:22.655Z,9.30
2019-02-21T23:10:53.378Z,9.31
2019-02-21T23:13:24.003Z,9.33
2019-02-21T23:15:54.561Z,9.37
2019-02-21T23:18:25.037Z,9.37
2019-02-21T23:20:56.595Z,9.39
2019-02-21T23:23:27.061Z,9.40
2019-02-21T23:25:57.545Z,9.41
2019-02-21T23:28:27.915Z,9.42
2019-02-21T23:30:58.405Z,9.40
2019-02-21T23:33:29.848Z,9.39
2019-02-21T23:36:00.355Z,9.38
2019-02-21T23:38:30.818Z,9.38
2019-02-21T23:41:01.272Z,9.39
2019-02-21T23:43:31.713Z,9.41
2019-02-21T23:46:02.110Z,9.42
2019-02-21T23:48:32.466Z,9.40
2019-02-21T23:51:02.949Z,9.33
2019-02-21T23:53:33.402Z,9.30
2019-02-21T23:56:03.834Z,9.24
2019-02-21T23:58:34.282Z,9.24
